TLPL/UVF METAR and TAF weather

Enter ICAO airport designator
Station Type Date Time Source
TLPL METAR 2020/07/15 02:00 UTC NOAA

TLPL 150200Z 09014KT 9999 FEW025 28/24 Q1015 NOSIG


Station Type Date Time Source
TLPL Decoded METAR 2020/07/15 02:00 UTC NOAA

Hewanorra International Airport, Saint Lucia (TLPL) 13-45N 060-57W 10M
Jul 14, 2020 - 10:00 PM EDT / 2020.07.15 0200 UTC
Wind: from the E (090 degrees) at 16 MPH (14 KT):0
Visibility: greater than 7 mile(s):0
Sky conditions: mostly clear
Temperature: 82 F (28 C)
Dew Point: 75 F (24 C)
Relative Humidity: 78%
Pressure (altimeter): 29.97 in. Hg (1015 hPa)
ob: TLPL 150200Z 09014KT 9999 FEW025 28/24 Q1015 NOSIG
cycle: 2

Station Type Date Time Source
TLPL TAF 2020/07/14 18:03 UTC NOAA

TAF TAF TLPL 141700Z 1418/1518 09014KT 9999 SCT025
TEMPO 1420/1424 5000 SHRA BKN015 BKN040
TEMPO 1506/1512 5000 SHRA BKN015 BKN040

Example: see airport list